createdAt,value
2023-03-17T00:05:19.726Z,9.90
2023-03-17T08:26:57.178Z,17.30
2023-03-17T08:29:25.422Z,17.50
2023-03-17T08:34:22.489Z,19.30
2023-03-17T08:46:40.728Z,21.90
2023-03-17T08:51:37.412Z,21.30
2023-03-17T09:06:23.969Z,21.80
2023-03-17T09:11:28.437Z,22.40
2023-03-17T09:18:52.665Z,22.40
2023-03-17T09:33:42.053Z,21.30
2023-03-17T09:36:12.197Z,21.80
2023-03-17T09:41:23.789Z,21.80
2023-03-17T09:44:05.164Z,21.70
2023-03-17T09:46:54.719Z,21.60
2023-03-17T09:49:27.634Z,21.90
2023-03-17T09:54:38.191Z,22.30
2023-03-17T09:57:10.819Z,23.10
2023-03-17T09:59:43.872Z,23.30
2023-03-17T10:02:27.662Z,23.50
2023-03-17T10:07:28.584Z,23.50
2023-03-17T10:10:05.155Z,23.30
2023-03-17T10:13:09.858Z,23.10
2023-03-17T10:15:49.307Z,22.70
2023-03-17T10:18:18.485Z,21.80
2023-03-17T10:20:57.191Z,22.30
2023-03-17T10:23:34.856Z,22.40
2023-03-17T10:26:39.689Z,22.60
2023-03-17T10:29:14.234Z,23.20
2023-03-17T10:34:23.787Z,23.10
2023-03-17T10:36:54.951Z,22.60
2023-03-17T10:39:24.112Z,22.00
2023-03-17T10:42:01.548Z,23.60
2023-03-17T10:44:39.791Z,23.70
2023-03-17T10:49:37.841Z,23.30
2023-03-17T10:52:22.601Z,22.20
2023-03-17T10:54:53.232Z,23.00
2023-03-17T10:57:20.878Z,24.90
2023-03-17T10:59:53.703Z,22.70
2023-03-17T11:02:25.917Z,22.70
2023-03-17T11:05:19.592Z,23.40
2023-03-17T11:10:26.127Z,24.70
2023-03-17T11:13:01.731Z,24.90
2023-03-17T11:15:33.758Z,23.40
2023-03-17T11:18:14.084Z,23.30
2023-03-17T11:20:46.418Z,22.90
2023-03-17T11:23:38.935Z,22.90
2023-03-17T11:28:39.285Z,22.00
2023-03-17T11:31:19.393Z,21.50
2023-03-17T11:33:56.764Z,21.00
2023-03-17T11:37:00.830Z,20.90
2023-03-17T11:39:36.697Z,21.60
2023-03-17T11:44:58.183Z,22.70
2023-03-17T11:47:43.296Z,23.60
2023-03-17T11:50:22.084Z,24.50
2023-03-17T11:53:29.565Z,25.00
2023-03-17T11:56:14.379Z,24.70
2023-03-17T11:58:49.924Z,24.30
2023-03-17T12:01:22.989Z,24.30
2023-03-17T12:04:19.647Z,24.00
2023-03-17T12:06:56.046Z,24.00
2023-03-17T12:09:46.792Z,24.40
2023-03-17T12:12:20.513Z,25.00
2023-03-17T12:14:53.995Z,25.00
2023-03-17T12:17:30.299Z,24.90
2023-03-17T12:20:09.765Z,23.50
2023-03-17T12:23:01.429Z,24.70
2023-03-17T12:25:34.025Z,24.80
2023-03-17T12:30:39.015Z,24.30
2023-03-17T12:33:27.664Z,23.10
2023-03-17T12:41:05.595Z,22.90
2023-03-17T12:43:38.958Z,22.70
2023-03-17T12:46:28.906Z,22.80
2023-03-17T12:49:02.197Z,22.90
2023-03-17T12:51:48.826Z,22.80
2023-03-17T12:54:27.909Z,22.60
2023-03-17T12:57:06.498Z,22.20
2023-03-17T12:59:35.683Z,21.00
2023-03-17T13:02:29.354Z,21.00
2023-03-17T13:05:00.752Z,20.60
2023-03-17T13:07:52.491Z,20.30
2023-03-17T13:10:42.592Z,20.20
2023-03-17T13:13:54.848Z,19.40
2023-03-17T13:16:39.222Z,20.20
2023-03-17T13:19:31.168Z,20.40
2023-03-17T13:22:01.156Z,20.20
2023-03-17T13:24:47.222Z,20.10
2023-03-17T13:27:32.436Z,19.80
2023-03-17T13:30:19.786Z,19.80
2023-03-17T13:33:10.397Z,19.90
2023-03-17T13:35:47.684Z,20.10
2023-03-17T13:40:48.302Z,19.30
2023-03-17T13:43:24.229Z,20.30
2023-03-17T13:48:37.948Z,20.50
2023-03-17T13:51:08.820Z,20.70
2023-03-17T13:53:41.340Z,20.40
2023-03-17T13:56:12.317Z,19.70
2023-03-17T13:59:12.628Z,20.40
2023-03-17T14:01:57.730Z,20.30
2023-03-17T14:04:57.680Z,20.00
2023-03-17T14:07:29.754Z,19.90
2023-03-17T14:09:59.521Z,19.60
2023-03-17T14:12:51.127Z,19.50
2023-03-17T14:15:28.153Z,19.40
2023-03-17T14:18:04.595Z,18.10
2023-03-17T14:23:03.942Z,19.50
2023-03-17T14:25:37.578Z,20.90
2023-03-17T14:28:09.330Z,19.60
2023-03-17T14:35:39.753Z,20.50
2023-03-17T14:38:25.568Z,20.70
2023-03-17T14:41:05.471Z,22.10
2023-03-17T14:43:35.200Z,20.80
2023-03-17T14:46:04.078Z,21.90
2023-03-17T14:48:33.761Z,20.90
2023-03-17T14:51:06.767Z,20.90
2023-03-17T14:53:36.194Z,20.90
2023-03-17T14:58:38.086Z,21.10
2023-03-17T15:01:08.053Z,20.90
2023-03-17T15:03:40.134Z,21.00
2023-03-17T15:06:29.549Z,20.80
2023-03-17T15:09:04.003Z,20.60
2023-03-17T15:11:44.566Z,20.40
2023-03-17T15:14:34.771Z,19.30
2023-03-17T15:17:13.115Z,20.40
2023-03-17T15:19:49.202Z,20.30
2023-03-17T15:22:42.468Z,20.20
2023-03-17T15:25:41.151Z,20.00
2023-03-17T15:28:34.623Z,18.80
2023-03-17T15:31:12.822Z,19.80
2023-03-17T15:33:41.323Z,19.70
2023-03-17T15:36:31.304Z,19.50
2023-03-17T15:46:27.786Z,19.30
2023-03-17T15:48:55.146Z,18.10
2023-03-17T15:51:22.092Z,19.90
2023-03-17T15:56:19.195Z,19.30
2023-03-17T15:58:52.417Z,19.00
2023-03-17T16:01:20.053Z,18.20
2023-03-17T16:03:47.920Z,19.10
2023-03-17T16:06:22.249Z,19.10
2023-03-17T16:08:50.602Z,18.90
2023-03-17T16:11:28.584Z,18.80
2023-03-17T16:16:37.592Z,18.70
2023-03-17T16:19:05.513Z,18.50
2023-03-17T16:21:32.645Z,17.30
2023-03-17T16:28:56.656Z,18.60
2023-03-17T16:31:31.914Z,18.50
2023-03-17T16:33:58.915Z,18.40
2023-03-17T16:38:54.058Z,19.50
2023-03-17T16:41:23.984Z,18.30
2023-03-17T16:43:52.515Z,18.20
2023-03-17T16:46:21.003Z,18.10
2023-03-17T16:53:44.468Z,17.90
2023-03-17T16:56:18.624Z,17.80
2023-03-17T16:58:46.926Z,17.70
2023-03-17T17:11:19.461Z,16.20
2023-03-17T17:13:48.395Z,17.30
2023-03-17T17:16:27.256Z,17.20
2023-03-17T17:21:21.954Z,15.90
2023-03-17T17:33:41.461Z,18.10
2023-03-17T17:36:14.609Z,16.70
2023-03-17T17:38:41.919Z,15.40
2023-03-17T17:41:11.009Z,16.40
2023-03-17T17:46:11.537Z,16.40
2023-03-17T17:53:34.206Z,15.20
2023-03-17T18:28:07.059Z,15.60
2023-03-17T18:52:50.398Z,16.60
2023-03-17T19:15:06.294Z,15.30
2023-03-17T20:29:12.632Z,15.20
2023-03-17T21:11:20.898Z,15.00
2023-03-17T22:37:53.049Z,14.60
